sensor_id;sensor_type;location;lat;lon;timestamp;pressure;altitude;pressure_sealevel;temperature;humidity
47811;BME280;33575;52.600;7.318;2023-04-25T00:01:48;100641.64;;;6.39;100.00
47811;BME280;33575;52.600;7.318;2023-04-25T00:04:19;100644.37;;;6.50;100.00
47811;BME280;33575;52.600;7.318;2023-04-25T00:06:49;100644.17;;;6.43;100.00
47811;BME280;33575;52.600;7.318;2023-04-25T00:09:20;100648.55;;;6.35;100.00
47811;BME280;33575;52.600;7.318;2023-04-25T00:11:50;100654.82;;;6.30;100.00
47811;BME280;33575;52.600;7.318;2023-04-25T00:14:21;100651.54;;;6.39;99.76
47811;BME280;33575;52.600;7.318;2023-04-25T00:16:51;100660.83;;;5.97;100.00
47811;BME280;33575;52.600;7.318;2023-04-25T00:19:22;100664.44;;;5.76;100.00
47811;BME280;33575;52.600;7.318;2023-04-25T00:21:53;100665.41;;;5.85;100.00
47811;BME280;33575;52.600;7.318;2023-04-25T00:24:24;100666.36;;;5.72;100.00
47811;BME280;33575;52.600;7.318;2023-04-25T00:26:54;100667.28;;;5.81;98.97
47811;BME280;33575;52.600;7.318;2023-04-25T00:29:25;100671.73;;;5.96;99.75
47811;BME280;33575;52.600;7.318;2023-04-25T00:31:56;100672.05;;;5.70;100.00
47811;BME280;33575;52.600;7.318;2023-04-25T00:34:26;100672.39;;;5.88;99.61
47811;BME280;33575;52.600;7.318;2023-04-25T00:36:57;100671.45;;;5.94;98.26
47811;BME280;33575;52.600;7.318;2023-04-25T00:39:28;100671.59;;;6.00;98.04
47811;BME280;33575;52.600;7.318;2023-04-25T00:41:58;100677.05;;;6.13;97.26
47811;BME280;33575;52.600;7.318;2023-04-25T00:44:29;100677.28;;;6.12;97.16
47811;BME280;33575;52.600;7.318;2023-04-25T00:47:01;100679.76;;;6.09;97.19
47811;BME280;33575;52.600;7.318;2023-04-25T00:49:30;100683.25;;;6.19;96.88
47811;BME280;33575;52.600;7.318;2023-04-25T00:52:01;100685.67;;;6.30;95.86
47811;BME280;33575;52.600;7.318;2023-04-25T00:54:32;100683.96;;;6.15;96.52
47811;BME280;33575;52.600;7.318;2023-04-25T00:57:03;100682.52;;;6.19;96.24
47811;BME280;33575;52.600;7.318;2023-04-25T00:59:33;100681.95;;;6.32;95.81
47811;BME280;33575;52.600;7.318;2023-04-25T01:02:04;100683.47;;;6.33;94.52
47811;BME280;33575;52.600;7.318;2023-04-25T01:04:34;100678.98;;;6.09;95.68
47811;BME280;33575;52.600;7.318;2023-04-25T01:07:05;100675.33;;;6.15;95.19
47811;BME280;33575;52.600;7.318;2023-04-25T01:09:35;100675.01;;;6.01;95.94
47811;BME280;33575;52.600;7.318;2023-04-25T01:12:06;100675.79;;;6.19;95.30
47811;BME280;33575;52.600;7.318;2023-04-25T01:14:37;100682.17;;;6.22;94.70
47811;BME280;33575;52.600;7.318;2023-04-25T01:17:08;100680.94;;;6.08;94.93
47811;BME280;33575;52.600;7.318;2023-04-25T01:19:38;100686.32;;;6.06;95.32
47811;BME280;33575;52.600;7.318;2023-04-25T01:22:09;100687.98;;;6.16;95.13
47811;BME280;33575;52.600;7.318;2023-04-25T01:24:40;100691.83;;;6.20;95.31
47811;BME280;33575;52.600;7.318;2023-04-25T01:27:10;100694.84;;;6.18;94.70
47811;BME280;33575;52.600;7.318;2023-04-25T01:29:41;100697.42;;;6.18;93.93
47811;BME280;33575;52.600;7.318;2023-04-25T01:32:12;100698.21;;;6.23;94.42
47811;BME280;33575;52.600;7.318;2023-04-25T01:34:42;100697.31;;;6.23;94.00
47811;BME280;33575;52.600;7.318;2023-04-25T01:37:13;100701.79;;;6.27;94.30
47811;BME280;33575;52.600;7.318;2023-04-25T01:39:44;100705.37;;;6.31;93.96
47811;BME280;33575;52.600;7.318;2023-04-25T01:42:15;100709.26;;;6.34;93.91
47811;BME280;33575;52.600;7.318;2023-04-25T01:44:44;100710.41;;;6.26;93.91
47811;BME280;33575;52.600;7.318;2023-04-25T01:47:15;100710.78;;;6.26;93.93
47811;BME280;33575;52.600;7.318;2023-04-25T01:49:46;100711.71;;;6.28;93.01
47811;BME280;33575;52.600;7.318;2023-04-25T01:52:16;100715.25;;;6.24;93.16
47811;BME280;33575;52.600;7.318;2023-04-25T01:54:48;100718.32;;;6.24;92.81
47811;BME280;33575;52.600;7.318;2023-04-25T01:57:18;100721.60;;;6.27;93.04
47811;BME280;33575;52.600;7.318;2023-04-25T01:59:49;100721.87;;;6.23;93.32
47811;BME280;33575;52.600;7.318;2023-04-25T02:02:19;100726.58;;;6.23;92.97
47811;BME280;33575;52.600;7.318;2023-04-25T02:04:50;100727.83;;;6.21;92.98
47811;BME280;33575;52.600;7.318;2023-04-25T02:07:20;100729.52;;;6.19;93.39
47811;BME280;33575;52.600;7.318;2023-04-25T02:09:51;100731.19;;;6.16;92.92
47811;BME280;33575;52.600;7.318;2023-04-25T02:12:22;100728.45;;;6.15;93.16
47811;BME280;33575;52.600;7.318;2023-04-25T02:14:53;100729.40;;;6.15;92.60
47811;BME280;33575;52.600;7.318;2023-04-25T02:17:23;100730.66;;;6.07;92.84
47811;BME280;33575;52.600;7.318;2023-04-25T02:19:54;100731.91;;;6.00;93.52
47811;BME280;33575;52.600;7.318;2023-04-25T02:22:24;100737.47;;;5.98;93.32
47811;BME280;33575;52.600;7.318;2023-04-25T02:24:55;100736.01;;;5.98;92.59
47811;BME280;33575;52.600;7.318;2023-04-25T02:27:26;100739.25;;;5.95;93.18
47811;BME280;33575;52.600;7.318;2023-04-25T02:29:56;100741.34;;;5.87;92.88
47811;BME280;33575;52.600;7.318;2023-04-25T02:32:27;100743.69;;;5.86;93.22
47811;BME280;33575;52.600;7.318;2023-04-25T02:34:57;100743.71;;;5.89;92.35
47811;BME280;33575;52.600;7.318;2023-04-25T02:37:28;100747.27;;;5.80;93.23
47811;BME280;33575;52.600;7.318;2023-04-25T02:39:58;100747.60;;;5.76;92.82
47811;BME280;33575;52.600;7.318;2023-04-25T02:42:29;100752.25;;;5.78;92.77
47811;BME280;33575;52.600;7.318;2023-04-25T02:45:00;100758.40;;;5.80;92.68
47811;BME280;33575;52.600;7.318;2023-04-25T02:47:31;100760.01;;;5.80;92.84
47811;BME280;33575;52.600;7.318;2023-04-25T02:50:01;100756.29;;;5.69;92.77
47811;BME280;33575;52.600;7.318;2023-04-25T02:52:32;100754.48;;;5.72;92.87
47811;BME280;33575;52.600;7.318;2023-04-25T02:55:03;100759.78;;;5.72;92.38
47811;BME280;33575;52.600;7.318;2023-04-25T02:57:33;100758.71;;;5.76;92.25
47811;BME280;33575;52.600;7.318;2023-04-25T03:00:05;100759.63;;;5.78;92.14
47811;BME280;33575;52.600;7.318;2023-04-25T03:02:35;100760.44;;;5.79;92.33
47811;BME280;33575;52.600;7.318;2023-04-25T03:05:06;100759.99;;;5.80;92.15
47811;BME280;33575;52.600;7.318;2023-04-25T03:07:36;100761.76;;;5.77;92.41
47811;BME280;33575;52.600;7.318;2023-04-25T03:10:07;100759.15;;;5.73;92.76
47811;BME280;33575;52.600;7.318;2023-04-25T03:12:38;100762.66;;;5.70;92.75
47811;BME280;33575;52.600;7.318;2023-04-25T03:15:08;100770.31;;;5.66;93.11
47811;BME280;33575;52.600;7.318;2023-04-25T03:17:38;100768.15;;;5.69;92.69
47811;BME280;33575;52.600;7.318;2023-04-25T03:20:10;100766.09;;;5.68;93.16
47811;BME280;33575;52.600;7.318;2023-04-25T03:22:39;100768.29;;;5.64;92.44
47811;BME280;33575;52.600;7.318;2023-04-25T03:25:10;100770.46;;;5.69;92.83
47811;BME280;33575;52.600;7.318;2023-04-25T03:27:41;100770.47;;;5.67;92.70
47811;BME280;33575;52.600;7.318;2023-04-25T03:30:12;100774.65;;;5.61;92.82
47811;BME280;33575;52.600;7.318;2023-04-25T03:32:42;100774.09;;;5.61;92.56
47811;BME280;33575;52.600;7.318;2023-04-25T03:35:13;100774.22;;;5.60;92.06
47811;BME280;33575;52.600;7.318;2023-04-25T03:37:44;100772.08;;;5.65;92.50
47811;BME280;33575;52.600;7.318;2023-04-25T03:40:14;100774.04;;;5.66;92.43
47811;BME280;33575;52.600;7.318;2023-04-25T03:42:46;100774.74;;;5.47;92.87
47811;BME280;33575;52.600;7.318;2023-04-25T03:45:15;100774.66;;;5.51;93.49
47811;BME280;33575;52.600;7.318;2023-04-25T03:47:46;100776.99;;;5.51;93.12
47811;BME280;33575;52.600;7.318;2023-04-25T03:50:17;100782.30;;;5.51;92.99
47811;BME280;33575;52.600;7.318;2023-04-25T03:52:48;100788.59;;;5.42;93.94
47811;BME280;33575;52.600;7.318;2023-04-25T03:55:18;100790.82;;;5.44;93.74
47811;BME280;33575;52.600;7.318;2023-04-25T03:57:49;100792.13;;;5.43;93.55
47811;BME280;33575;52.600;7.318;2023-04-25T04:00:19;100794.77;;;5.39;93.95
47811;BME280;33575;52.600;7.318;2023-04-25T04:02:50;100796.06;;;5.40;94.30
47811;BME280;33575;52.600;7.318;2023-04-25T04:05:21;100796.39;;;5.38;94.51
47811;BME280;33575;52.600;7.318;2023-04-25T04:07:51;100796.19;;;5.38;94.02
47811;BME280;33575;52.600;7.318;2023-04-25T04:10:22;100798.42;;;5.39;93.55
47811;BME280;33575;52.600;7.318;2023-04-25T04:12:52;100804.90;;;5.45;93.39
47811;BME280;33575;52.600;7.318;2023-04-25T04:15:23;100808.49;;;5.43;93.60
47811;BME280;33575;52.600;7.318;2023-04-25T04:17:54;100810.66;;;5.44;93.15
47811;BME280;33575;52.600;7.318;2023-04-25T04:20:25;100811.43;;;5.39;93.63
47811;BME280;33575;52.600;7.318;2023-04-25T04:22:56;100814.47;;;5.36;93.30
47811;BME280;33575;52.600;7.318;2023-04-25T04:25:26;100814.50;;;5.39;93.48
47811;BME280;33575;52.600;7.318;2023-04-25T04:27:57;100819.45;;;5.38;93.53
47811;BME280;33575;52.600;7.318;2023-04-25T04:30:28;100817.01;;;5.39;93.05
47811;BME280;33575;52.600;7.318;2023-04-25T04:32:59;100823.80;;;5.42;92.99
47811;BME280;33575;52.600;7.318;2023-04-25T04:35:29;100825.89;;;5.36;93.00
47811;BME280;33575;52.600;7.318;2023-04-25T04:38:00;100826.97;;;5.30;93.61
47811;BME280;33575;52.600;7.318;2023-04-25T04:40:30;100833.88;;;5.30;93.36
47811;BME280;33575;52.600;7.318;2023-04-25T04:43:01;100836.46;;;5.41;92.93
47811;BME280;33575;52.600;7.318;2023-04-25T04:45:32;100839.72;;;5.43;92.60
47811;BME280;33575;52.600;7.318;2023-04-25T04:48:03;100838.91;;;5.41;92.99
47811;BME280;33575;52.600;7.318;2023-04-25T04:50:33;100838.45;;;5.46;92.51
47811;BME280;33575;52.600;7.318;2023-04-25T04:53:04;100845.14;;;5.38;92.26
47811;BME280;33575;52.600;7.318;2023-04-25T04:55:34;100849.64;;;5.40;92.38
47811;BME280;33575;52.600;7.318;2023-04-25T04:58:05;100852.01;;;5.39;92.63
47811;BME280;33575;52.600;7.318;2023-04-25T05:00:36;100856.15;;;5.39;93.41
47811;BME280;33575;52.600;7.318;2023-04-25T05:03:07;100855.23;;;5.38;92.45
47811;BME280;33575;52.600;7.318;2023-04-25T05:05:37;100856.48;;;5.41;92.24
47811;BME280;33575;52.600;7.318;2023-04-25T05:08:08;100862.06;;;5.41;91.79
47811;BME280;33575;52.600;7.318;2023-04-25T05:10:38;100862.49;;;5.43;92.11
47811;BME280;33575;52.600;7.318;2023-04-25T05:13:08;100863.10;;;5.47;91.16
47811;BME280;33575;52.600;7.318;2023-04-25T05:15:39;100871.64;;;5.45;91.87
47811;BME280;33575;52.600;7.318;2023-04-25T05:18:10;100878.20;;;5.50;91.61
47811;BME280;33575;52.600;7.318;2023-04-25T05:20:40;100876.30;;;5.48;90.74
47811;BME280;33575;52.600;7.318;2023-04-25T05:23:11;100877.54;;;5.43;92.13
47811;BME280;33575;52.600;7.318;2023-04-25T05:25:42;100884.10;;;5.49;91.47
47811;BME280;33575;52.600;7.318;2023-04-25T05:28:13;100887.04;;;5.48;91.29
47811;BME280;33575;52.600;7.318;2023-04-25T05:30:43;100889.45;;;5.41;91.61
47811;BME280;33575;52.600;7.318;2023-04-25T05:33:14;100890.26;;;5.42;91.30
47811;BME280;33575;52.600;7.318;2023-04-25T05:35:45;100890.49;;;5.41;91.74
47811;BME280;33575;52.600;7.318;2023-04-25T05:38:15;100888.34;;;5.49;91.68
47811;BME280;33575;52.600;7.318;2023-04-25T05:40:46;100890.37;;;5.39;91.20
47811;BME280;33575;52.600;7.318;2023-04-25T05:43:17;100892.23;;;5.42;91.04
47811;BME280;33575;52.600;7.318;2023-04-25T05:45:47;100894.34;;;5.44;90.94
47811;BME280;33575;52.600;7.318;2023-04-25T05:48:18;100892.05;;;5.46;90.95
47811;BME280;33575;52.600;7.318;2023-04-25T05:50:49;100896.71;;;5.42;91.32
47811;BME280;33575;52.600;7.318;2023-04-25T05:53:20;100900.40;;;5.29;91.14
47811;BME280;33575;52.600;7.318;2023-04-25T05:55:50;100901.75;;;5.32;90.14
47811;BME280;33575;52.600;7.318;2023-04-25T05:58:21;100903.90;;;5.34;89.76
47811;BME280;33575;52.600;7.318;2023-04-25T06:00:52;100909.09;;;5.44;91.35
47811;BME280;33575;52.600;7.318;2023-04-25T06:03:23;100906.53;;;5.19;88.41
47811;BME280;33575;52.600;7.318;2023-04-25T06:05:53;100910.08;;;5.33;89.64
47811;BME280;33575;52.600;7.318;2023-04-25T06:08:24;100911.58;;;5.48;91.22
47811;BME280;33575;52.600;7.318;2023-04-25T06:10:55;100911.81;;;5.35;87.73
47811;BME280;33575;52.600;7.318;2023-04-25T06:13:26;100918.28;;;5.55;88.43
47811;BME280;33575;52.600;7.318;2023-04-25T06:15:56;100921.67;;;5.41;87.12
47811;BME280;33575;52.600;7.318;2023-04-25T06:18:27;100924.28;;;5.20;87.59
47811;BME280;33575;52.600;7.318;2023-04-25T06:20:58;100927.50;;;5.13;88.07
47811;BME280;33575;52.600;7.318;2023-04-25T06:23:29;100931.54;;;5.11;87.22
47811;BME280;33575;52.600;7.318;2023-04-25T06:25:59;100936.93;;;5.11;88.13
47811;BME280;33575;52.600;7.318;2023-04-25T06:28:30;100935.74;;;5.02;87.67
47811;BME280;33575;52.600;7.318;2023-04-25T06:31:01;100943.24;;;5.11;88.02
47811;BME280;33575;52.600;7.318;2023-04-25T06:33:32;100943.22;;;5.04;88.80
47811;BME280;33575;52.600;7.318;2023-04-25T06:36:03;100945.09;;;5.10;88.34
47811;BME280;33575;52.600;7.318;2023-04-25T06:38:33;100945.86;;;5.18;88.64
47811;BME280;33575;52.600;7.318;2023-04-25T06:41:04;100951.66;;;5.04;88.76
47811;BME280;33575;52.600;7.318;2023-04-25T06:43:35;100946.34;;;5.11;88.47
47811;BME280;33575;52.600;7.318;2023-04-25T06:46:05;100948.37;;;5.16;88.64
47811;BME280;33575;52.600;7.318;2023-04-25T06:48:36;100949.73;;;5.24;89.06
47811;BME280;33575;52.600;7.318;2023-04-25T06:51:07;100953.40;;;5.30;88.81
47811;BME280;33575;52.600;7.318;2023-04-25T06:53:37;100950.45;;;5.50;89.32
47811;BME280;33575;52.600;7.318;2023-04-25T06:56:08;100955.06;;;5.58;89.12
47811;BME280;33575;52.600;7.318;2023-04-25T06:58:39;100957.08;;;5.71;87.94
47811;BME280;33575;52.600;7.318;2023-04-25T07:01:10;100958.69;;;5.37;87.36
47811;BME280;33575;52.600;7.318;2023-04-25T07:03:41;100959.81;;;5.39;87.28
47811;BME280;33575;52.600;7.318;2023-04-25T07:06:11;100960.74;;;5.47;87.63
47811;BME280;33575;52.600;7.318;2023-04-25T07:08:42;100961.70;;;5.66;87.50
47811;BME280;33575;52.600;7.318;2023-04-25T07:11:12;100966.75;;;5.57;86.98
47811;BME280;33575;52.600;7.318;2023-04-25T07:13:43;100965.17;;;5.55;85.77
47811;BME280;33575;52.600;7.318;2023-04-25T07:16:14;100966.10;;;5.57;86.58
47811;BME280;33575;52.600;7.318;2023-04-25T07:18:45;100972.89;;;5.34;86.24
47811;BME280;33575;52.600;7.318;2023-04-25T07:21:15;100968.48;;;5.66;86.62
47811;BME280;33575;52.600;7.318;2023-04-25T07:23:46;100966.79;;;5.72;86.70
47811;BME280;33575;52.600;7.318;2023-04-25T07:26:17;100969.29;;;5.74;88.44
47811;BME280;33575;52.600;7.318;2023-04-25T07:28:47;100974.08;;;6.01;86.96
47811;BME280;33575;52.600;7.318;2023-04-25T07:31:18;100979.76;;;6.18;86.03
47811;BME280;33575;52.600;7.318;2023-04-25T07:33:49;100982.79;;;6.11;85.40
47811;BME280;33575;52.600;7.318;2023-04-25T07:36:20;100985.71;;;5.98;85.58
47811;BME280;33575;52.600;7.318;2023-04-25T07:38:51;100985.35;;;6.18;85.03
47811;BME280;33575;52.600;7.318;2023-04-25T07:41:21;100993.16;;;6.11;82.55
47811;BME280;33575;52.600;7.318;2023-04-25T07:43:52;100989.47;;;6.10;82.99
47811;BME280;33575;52.600;7.318;2023-04-25T07:46:22;100992.97;;;6.02;82.08
47811;BME280;33575;52.600;7.318;2023-04-25T07:48:54;100991.64;;;5.77;81.59
47811;BME280;33575;52.600;7.318;2023-04-25T07:51:24;100997.35;;;5.95;83.21
47811;BME280;33575;52.600;7.318;2023-04-25T07:53:54;101002.33;;;5.87;83.26
47811;BME280;33575;52.600;7.318;2023-04-25T07:56:25;101002.01;;;6.08;84.06
47811;BME280;33575;52.600;7.318;2023-04-25T07:58:56;101005.44;;;6.17;85.23
47811;BME280;33575;52.600;7.318;2023-04-25T08:01:26;101011.86;;;6.14;84.57
47811;BME280;33575;52.600;7.318;2023-04-25T08:03:58;101019.73;;;6.27;84.58
47811;BME280;33575;52.600;7.318;2023-04-25T08:06:28;101020.49;;;6.16;84.36
47811;BME280;33575;52.600;7.318;2023-04-25T08:08:58;101020.21;;;6.05;85.46
47811;BME280;33575;52.600;7.318;2023-04-25T08:11:29;101013.79;;;6.28;85.46
47811;BME280;33575;52.600;7.318;2023-04-25T08:14:00;101022.46;;;6.39;84.65
47811;BME280;33575;52.600;7.318;2023-04-25T08:16:30;101024.33;;;6.31;82.80
47811;BME280;33575;52.600;7.318;2023-04-25T08:19:02;101027.85;;;6.32;81.65
47811;BME280;33575;52.600;7.318;2023-04-25T08:21:32;101033.97;;;6.37;83.17
47811;BME280;33575;52.600;7.318;2023-04-25T08:24:04;101036.68;;;6.45;83.57
47811;BME280;33575;52.600;7.318;2023-04-25T08:26:33;101037.52;;;6.48;83.24
47811;BME280;33575;52.600;7.318;2023-04-25T08:29:04;101039.36;;;6.13;81.74
47811;BME280;33575;52.600;7.318;2023-04-25T08:31:34;101035.89;;;6.35;81.97
47811;BME280;33575;52.600;7.318;2023-04-25T08:34:05;101037.69;;;6.36;83.21
47811;BME280;33575;52.600;7.318;2023-04-25T08:36:41;101043.54;;;6.55;82.54
47811;BME280;33575;52.600;7.318;2023-04-25T08:39:06;101054.62;;;6.33;82.61
47811;BME280;33575;52.600;7.318;2023-04-25T08:41:37;101053.65;;;6.35;80.49
47811;BME280;33575;52.600;7.318;2023-04-25T08:44:10;101059.52;;;6.42;80.88
47811;BME280;33575;52.600;7.318;2023-04-25T08:46:39;101060.22;;;6.37;81.33
47811;BME280;33575;52.600;7.318;2023-04-25T08:49:09;101063.16;;;6.36;81.50
47811;BME280;33575;52.600;7.318;2023-04-25T08:51:44;101062.70;;;6.55;81.84
47811;BME280;33575;52.600;7.318;2023-04-25T08:54:16;101067.78;;;6.78;80.97
47811;BME280;33575;52.600;7.318;2023-04-25T08:56:44;101067.72;;;6.78;79.49
47811;BME280;33575;52.600;7.318;2023-04-25T08:59:12;101075.01;;;6.64;79.09
47811;BME280;33575;52.600;7.318;2023-04-25T09:01:43;101072.34;;;6.79;77.99
47811;BME280;33575;52.600;7.318;2023-04-25T09:04:14;101081.64;;;6.31;76.84
47811;BME280;33575;52.600;7.318;2023-04-25T09:06:44;101082.25;;;6.38;77.38
47811;BME280;33575;52.600;7.318;2023-04-25T09:09:15;101084.13;;;6.50;78.22
47811;BME280;33575;52.600;7.318;2023-04-25T09:11:45;101092.64;;;6.50;77.32
47811;BME280;33575;52.600;7.318;2023-04-25T09:14:17;101094.88;;;6.50;79.50
47811;BME280;33575;52.600;7.318;2023-04-25T09:19:21;101103.93;;;5.99;85.73
47811;BME280;33575;52.600;7.318;2023-04-25T09:21:49;101106.90;;;5.93;88.99
47811;BME280;33575;52.600;7.318;2023-04-25T09:26:49;101113.51;;;5.86;86.67
47811;BME280;33575;52.600;7.318;2023-04-25T09:29:29;101117.46;;;5.91;87.07
47811;BME280;33575;52.600;7.318;2023-04-25T09:31:51;101112.23;;;6.03;86.88
47811;BME280;33575;52.600;7.318;2023-04-25T09:34:21;101112.75;;;6.28;88.11
47811;BME280;33575;52.600;7.318;2023-04-25T09:36:54;101110.18;;;6.42;86.39
47811;BME280;33575;52.600;7.318;2023-04-25T09:39:23;101108.76;;;6.57;85.00
47811;BME280;33575;52.600;7.318;2023-04-25T09:41:54;101107.13;;;6.55;82.76
47811;BME280;33575;52.600;7.318;2023-04-25T09:44:24;101116.74;;;6.47;84.09
47811;BME280;33575;52.600;7.318;2023-04-25T09:46:55;101134.10;;;5.90;82.57
47811;BME280;33575;52.600;7.318;2023-04-25T09:49:26;101137.70;;;6.25;83.04
47811;BME280;33575;52.600;7.318;2023-04-25T09:51:56;101143.03;;;5.98;83.26
47811;BME280;33575;52.600;7.318;2023-04-25T09:54:27;101143.95;;;6.13;84.58
47811;BME280;33575;52.600;7.318;2023-04-25T09:57:01;101150.57;;;5.96;85.55
47811;BME280;33575;52.600;7.318;2023-04-25T09:59:31;101149.27;;;6.13;84.86
47811;BME280;33575;52.600;7.318;2023-04-25T10:01:59;101152.43;;;5.96;84.17
47811;BME280;33575;52.600;7.318;2023-04-25T10:04:34;101152.31;;;6.20;84.09
47811;BME280;33575;52.600;7.318;2023-04-25T10:07:01;101158.01;;;6.42;84.44
47811;BME280;33575;52.600;7.318;2023-04-25T10:09:32;101156.82;;;6.68;87.11
47811;BME280;33575;52.600;7.318;2023-04-25T10:12:02;101153.61;;;6.89;84.73
47811;BME280;33575;52.600;7.318;2023-04-25T10:14:32;101156.84;;;7.11;81.81
47811;BME280;33575;52.600;7.318;2023-04-25T10:17:03;101161.08;;;7.23;80.03
47811;BME280;33575;52.600;7.318;2023-04-25T10:19:33;101153.30;;;7.55;81.72
47811;BME280;33575;52.600;7.318;2023-04-25T10:22:08;101161.59;;;7.22;76.91
47811;BME280;33575;52.600;7.318;2023-04-25T10:24:35;101157.76;;;7.64;79.51
47811;BME280;33575;52.600;7.318;2023-04-25T10:27:05;101157.48;;;7.78;79.16
47811;BME280;33575;52.600;7.318;2023-04-25T10:29:36;101170.43;;;7.39;73.91
47811;BME280;33575;52.600;7.318;2023-04-25T10:32:06;101179.54;;;7.42;78.60
47811;BME280;33575;52.600;7.318;2023-04-25T10:34:40;101194.29;;;7.18;81.82
47811;BME280;33575;52.600;7.318;2023-04-25T10:37:09;101207.50;;;6.40;85.69
47811;BME280;33575;52.600;7.318;2023-04-25T10:39:40;101191.22;;;6.50;85.49
47811;BME280;33575;52.600;7.318;2023-04-25T10:42:09;101189.11;;;6.30;86.00
47811;BME280;33575;52.600;7.318;2023-04-25T10:44:39;101191.20;;;6.27;85.07
47811;BME280;33575;52.600;7.318;2023-04-25T10:47:10;101195.95;;;5.98;86.45
47811;BME280;33575;52.600;7.318;2023-04-25T10:49:42;101195.39;;;6.07;87.29
47811;BME280;33575;52.600;7.318;2023-04-25T10:52:14;101195.19;;;6.27;87.52
47811;BME280;33575;52.600;7.318;2023-04-25T10:54:46;101188.09;;;6.17;88.77
47811;BME280;33575;52.600;7.318;2023-04-25T10:59:44;101201.73;;;6.15;87.45
47811;BME280;33575;52.600;7.318;2023-04-25T11:02:15;101203.48;;;6.18;88.47
47811;BME280;33575;52.600;7.318;2023-04-25T11:04:45;101208.11;;;6.16;86.20
47811;BME280;33575;52.600;7.318;2023-04-25T11:07:23;101201.55;;;6.44;86.15
47811;BME280;33575;52.600;7.318;2023-04-25T11:09:47;101196.11;;;6.49;83.20
47811;BME280;33575;52.600;7.318;2023-04-25T11:12:17;101206.17;;;6.51;82.13
47811;BME280;33575;52.600;7.318;2023-04-25T11:14:48;101206.49;;;6.57;81.52
47811;BME280;33575;52.600;7.318;2023-04-25T11:17:18;101208.16;;;6.66;82.33
47811;BME280;33575;52.600;7.318;2023-04-25T11:19:49;101202.45;;;6.93;83.14
47811;BME280;33575;52.600;7.318;2023-04-25T11:22:21;101198.07;;;7.13;82.91
47811;BME280;33575;52.600;7.318;2023-04-25T11:24:50;101211.31;;;7.51;80.79
47811;BME280;33575;52.600;7.318;2023-04-25T11:27:21;101231.35;;;7.26;78.78
47811;BME280;33575;52.600;7.318;2023-04-25T11:29:51;101259.38;;;6.43;82.94
47811;BME280;33575;52.600;7.318;2023-04-25T11:32:23;101255.41;;;5.66;86.25
47811;BME280;33575;52.600;7.318;2023-04-25T11:34:53;101257.03;;;5.36;89.18
47811;BME280;33575;52.600;7.318;2023-04-25T11:37:24;101267.12;;;4.91;90.96
47811;BME280;33575;52.600;7.318;2023-04-25T11:39:54;101252.41;;;4.62;91.86
47811;BME280;33575;52.600;7.318;2023-04-25T11:42:25;101255.58;;;4.70;91.75
47811;BME280;33575;52.600;7.318;2023-04-25T11:44:56;101256.48;;;4.89;89.42
47811;BME280;33575;52.600;7.318;2023-04-25T11:47:29;101251.84;;;4.92;90.01
47811;BME280;33575;52.600;7.318;2023-04-25T11:49:58;101250.18;;;5.21;89.82
47811;BME280;33575;52.600;7.318;2023-04-25T11:52:37;101248.15;;;5.37;90.01
47811;BME280;33575;52.600;7.318;2023-04-25T11:54:59;101248.50;;;5.64;90.68
47811;BME280;33575;52.600;7.318;2023-04-25T11:57:31;101248.31;;;5.90;91.21
47811;BME280;33575;52.600;7.318;2023-04-25T12:00:08;101244.50;;;6.01;88.65
47811;BME280;33575;52.600;7.318;2023-04-25T12:02:31;101240.73;;;6.29;88.55
47811;BME280;33575;52.600;7.318;2023-04-25T12:05:08;101239.69;;;6.40;86.15
47811;BME280;33575;52.600;7.318;2023-04-25T12:07:33;101233.14;;;6.86;86.36
47811;BME280;33575;52.600;7.318;2023-04-25T12:10:06;101236.23;;;7.13;86.32
47811;BME280;33575;52.600;7.318;2023-04-25T12:12:35;101232.07;;;7.43;86.82
47811;BME280;33575;52.600;7.318;2023-04-25T12:15:10;101229.02;;;7.85;93.96
47811;BME280;33575;52.600;7.318;2023-04-25T12:17:35;101236.86;;;8.27;85.98
47811;BME280;33575;52.600;7.318;2023-04-25T12:20:08;101230.02;;;8.32;81.22
47811;BME280;33575;52.600;7.318;2023-04-25T12:22:36;101233.84;;;8.45;82.45
47811;BME280;33575;52.600;7.318;2023-04-25T12:25:08;101241.80;;;8.51;80.92
47811;BME280;33575;52.600;7.318;2023-04-25T12:27:38;101241.88;;;8.32;82.43
47811;BME280;33575;52.600;7.318;2023-04-25T12:30:09;101246.47;;;8.34;83.16
47811;BME280;33575;52.600;7.318;2023-04-25T12:32:39;101253.71;;;8.38;83.59
47811;BME280;33575;52.600;7.318;2023-04-25T12:35:10;101258.58;;;8.21;84.33
47811;BME280;33575;52.600;7.318;2023-04-25T12:37:40;101267.97;;;8.01;83.43
47811;BME280;33575;52.600;7.318;2023-04-25T12:40:11;101270.27;;;7.64;83.72
47811;BME280;33575;52.600;7.318;2023-04-25T12:42:42;101273.01;;;7.57;83.47
47811;BME280;33575;52.600;7.318;2023-04-25T12:45:12;101271.60;;;7.48;85.16
47811;BME280;33575;52.600;7.318;2023-04-25T12:47:43;101264.24;;;7.39;85.52
47811;BME280;33575;52.600;7.318;2023-04-25T12:50:14;101268.32;;;7.42;85.66
47811;BME280;33575;52.600;7.318;2023-04-25T12:52:44;101270.23;;;6.95;90.76
47811;BME280;33575;52.600;7.318;2023-04-25T12:55:15;101270.02;;;6.98;89.53
47811;BME280;33575;52.600;7.318;2023-04-25T12:57:46;101268.61;;;7.14;90.46
47811;BME280;33575;52.600;7.318;2023-04-25T13:00:17;101274.10;;;6.96;90.95
47811;BME280;33575;52.600;7.318;2023-04-25T13:02:47;101271.77;;;7.02;89.78
47811;BME280;33575;52.600;7.318;2023-04-25T13:05:18;101265.94;;;6.85;91.37
47811;BME280;33575;52.600;7.318;2023-04-25T13:07:49;101265.46;;;7.18;90.42
47811;BME280;33575;52.600;7.318;2023-04-25T13:10:19;101257.33;;;7.27;89.71
47811;BME280;33575;52.600;7.318;2023-04-25T13:12:50;101256.96;;;7.32;90.75
47811;BME280;33575;52.600;7.318;2023-04-25T13:15:20;101260.92;;;7.42;90.06
47811;BME280;33575;52.600;7.318;2023-04-25T13:17:51;101256.49;;;6.99;89.43
47811;BME280;33575;52.600;7.318;2023-04-25T13:20:21;101258.04;;;7.28;88.73
47811;BME280;33575;52.600;7.318;2023-04-25T13:22:52;101258.77;;;7.07;87.91
47811;BME280;33575;52.600;7.318;2023-04-25T13:25:23;101256.93;;;7.36;87.90